sensor_id;sensor_type;location;lat;lon;timestamp;P1;durP1;ratioP1;P2;durP2;ratioP2
40669;SDS011;26355;45.528;9.234;2022-07-30T00:01:22;18.45;;;8.90;;
40669;SDS011;26355;45.528;9.234;2022-07-30T00:03:48;17.73;;;8.70;;
40669;SDS011;26355;45.528;9.234;2022-07-30T00:06:13;19.15;;;10.10;;
40669;SDS011;26355;45.528;9.234;2022-07-30T00:08:39;17.58;;;9.32;;
40669;SDS011;26355;45.528;9.234;2022-07-30T00:11:04;20.55;;;10.82;;
40669;SDS011;26355;45.528;9.234;2022-07-30T00:13:30;18.70;;;9.93;;
40669;SDS011;26355;45.528;9.234;2022-07-30T00:15:56;20.88;;;9.95;;
40669;SDS011;26355;45.528;9.234;2022-07-30T00:18:21;21.55;;;11.88;;
40669;SDS011;26355;45.528;9.234;2022-07-30T00:20:47;20.88;;;11.52;;
40669;SDS011;26355;45.528;9.234;2022-07-30T00:23:13;20.67;;;11.43;;
40669;SDS011;26355;45.528;9.234;2022-07-30T00:25:38;23.05;;;13.20;;
40669;SDS011;26355;45.528;9.234;2022-07-30T00:28:04;23.92;;;13.27;;
40669;SDS011;26355;45.528;9.234;2022-07-30T00:30:30;21.98;;;12.63;;
40669;SDS011;26355;45.528;9.234;2022-07-30T00:32:55;23.90;;;14.35;;
40669;SDS011;26355;45.528;9.234;2022-07-30T00:35:21;23.50;;;14.10;;
40669;SDS011;26355;45.528;9.234;2022-07-30T00:37:47;20.73;;;12.15;;
40669;SDS011;26355;45.528;9.234;2022-07-30T00:40:12;24.25;;;13.98;;
40669;SDS011;26355;45.528;9.234;2022-07-30T00:42:42;20.70;;;12.18;;
40669;SDS011;26355;45.528;9.234;2022-07-30T00:45:09;21.85;;;12.27;;
40669;SDS011;26355;45.528;9.234;2022-07-30T00:47:36;20.90;;;10.52;;
40669;SDS011;26355;45.528;9.234;2022-07-30T00:50:02;20.50;;;11.02;;
40669;SDS011;26355;45.528;9.234;2022-07-30T00:52:30;20.35;;;11.02;;
40669;SDS011;26355;45.528;9.234;2022-07-30T00:54:57;24.27;;;13.03;;
40669;SDS011;26355;45.528;9.234;2022-07-30T00:57:23;21.08;;;12.63;;
40669;SDS011;26355;45.528;9.234;2022-07-30T00:59:49;22.88;;;13.00;;
40669;SDS011;26355;45.528;9.234;2022-07-30T01:02:15;22.85;;;13.90;;
40669;SDS011;26355;45.528;9.234;2022-07-30T01:04:40;23.75;;;13.68;;
40669;SDS011;26355;45.528;9.234;2022-07-30T01:07:06;23.35;;;14.10;;
40669;SDS011;26355;45.528;9.234;2022-07-30T01:09:31;24.48;;;15.18;;
40669;SDS011;26355;45.528;9.234;2022-07-30T01:11:57;23.70;;;14.00;;
40669;SDS011;26355;45.528;9.234;2022-07-30T01:14:23;27.80;;;16.80;;
40669;SDS011;26355;45.528;9.234;2022-07-30T01:16:49;24.58;;;15.73;;
40669;SDS011;26355;45.528;9.234;2022-07-30T01:19:22;26.25;;;15.40;;
40669;SDS011;26355;45.528;9.234;2022-07-30T01:22:11;28.27;;;15.95;;
40669;SDS011;26355;45.528;9.234;2022-07-30T01:24:51;24.88;;;15.35;;
40669;SDS011;26355;45.528;9.234;2022-07-30T01:27:20;26.38;;;15.70;;
40669;SDS011;26355;45.528;9.234;2022-07-30T01:29:47;27.27;;;15.55;;
40669;SDS011;26355;45.528;9.234;2022-07-30T01:32:16;25.83;;;16.00;;
40669;SDS011;26355;45.528;9.234;2022-07-30T01:34:46;28.15;;;17.55;;
40669;SDS011;26355;45.528;9.234;2022-07-30T01:37:13;28.10;;;16.77;;
40669;SDS011;26355;45.528;9.234;2022-07-30T01:39:40;31.45;;;17.58;;
40669;SDS011;26355;45.528;9.234;2022-07-30T01:42:07;27.70;;;17.67;;
40669;SDS011;26355;45.528;9.234;2022-07-30T01:44:35;25.27;;;17.25;;
40669;SDS011;26355;45.528;9.234;2022-07-30T01:47:03;24.25;;;16.20;;
40669;SDS011;26355;45.528;9.234;2022-07-30T01:49:29;25.85;;;17.40;;
40669;SDS011;26355;45.528;9.234;2022-07-30T01:51:56;26.85;;;16.80;;
40669;SDS011;26355;45.528;9.234;2022-07-30T01:54:23;25.63;;;16.88;;
40669;SDS011;26355;45.528;9.234;2022-07-30T01:56:53;25.60;;;16.20;;
40669;SDS011;26355;45.528;9.234;2022-07-30T01:59:20;26.15;;;16.08;;
40669;SDS011;26355;45.528;9.234;2022-07-30T02:01:48;24.27;;;15.98;;
40669;SDS011;26355;45.528;9.234;2022-07-30T02:04:14;28.95;;;17.38;;
40669;SDS011;26355;45.528;9.234;2022-07-30T02:06:45;26.83;;;17.00;;
40669;SDS011;26355;45.528;9.234;2022-07-30T02:09:20;25.10;;;15.73;;
40669;SDS011;26355;45.528;9.234;2022-07-30T02:11:52;25.25;;;16.92;;
40669;SDS011;26355;45.528;9.234;2022-07-30T02:15:24;24.55;;;15.73;;
40669;SDS011;26355;45.528;9.234;2022-07-30T02:17:33;24.42;;;15.90;;
40669;SDS011;26355;45.528;9.234;2022-07-30T02:20:03;25.30;;;15.88;;
40669;SDS011;26355;45.528;9.234;2022-07-30T02:22:31;24.35;;;15.65;;
40669;SDS011;26355;45.528;9.234;2022-07-30T02:24:59;26.17;;;16.13;;
40669;SDS011;26355;45.528;9.234;2022-07-30T02:27:27;25.17;;;15.57;;
40669;SDS011;26355;45.528;9.234;2022-07-30T02:29:57;26.23;;;17.35;;
40669;SDS011;26355;45.528;9.234;2022-07-30T02:32:25;23.70;;;15.50;;
40669;SDS011;26355;45.528;9.234;2022-07-30T02:34:55;24.63;;;15.38;;
40669;SDS011;26355;45.528;9.234;2022-07-30T02:37:24;26.15;;;17.38;;
40669;SDS011;26355;45.528;9.234;2022-07-30T02:39:51;24.20;;;15.23;;
40669;SDS011;26355;45.528;9.234;2022-07-30T02:42:19;24.20;;;15.02;;
40669;SDS011;26355;45.528;9.234;2022-07-30T02:44:46;25.75;;;15.85;;
40669;SDS011;26355;45.528;9.234;2022-07-30T02:47:14;25.65;;;16.83;;
40669;SDS011;26355;45.528;9.234;2022-07-30T02:49:41;23.45;;;15.57;;
40669;SDS011;26355;45.528;9.234;2022-07-30T02:52:10;25.05;;;16.30;;
40669;SDS011;26355;45.528;9.234;2022-07-30T02:54:38;25.85;;;15.50;;
40669;SDS011;26355;45.528;9.234;2022-07-30T02:57:06;26.00;;;16.48;;
40669;SDS011;26355;45.528;9.234;2022-07-30T03:04:27;26.88;;;16.67;;
40669;SDS011;26355;45.528;9.234;2022-07-30T03:06:55;24.40;;;15.85;;
40669;SDS011;26355;45.528;9.234;2022-07-30T03:09:21;26.95;;;17.08;;
40669;SDS011;26355;45.528;9.234;2022-07-30T03:11:48;25.40;;;16.10;;
40669;SDS011;26355;45.528;9.234;2022-07-30T03:14:16;26.17;;;14.93;;
40669;SDS011;26355;45.528;9.234;2022-07-30T03:16:42;22.25;;;13.48;;
40669;SDS011;26355;45.528;9.234;2022-07-30T03:19:12;27.08;;;13.18;;
40669;SDS011;26355;45.528;9.234;2022-07-30T03:21:41;23.55;;;12.65;;
40669;SDS011;26355;45.528;9.234;2022-07-30T03:24:09;23.33;;;12.85;;
40669;SDS011;26355;45.528;9.234;2022-07-30T03:26:37;20.67;;;11.55;;
40669;SDS011;26355;45.528;9.234;2022-07-30T03:29:04;21.35;;;12.02;;
40669;SDS011;26355;45.528;9.234;2022-07-30T03:31:32;20.98;;;11.00;;
40669;SDS011;26355;45.528;9.234;2022-07-30T03:34:00;21.73;;;11.65;;
40669;SDS011;26355;45.528;9.234;2022-07-30T03:36:26;20.83;;;11.53;;
40669;SDS011;26355;45.528;9.234;2022-07-30T03:38:53;20.92;;;11.20;;
40669;SDS011;26355;45.528;9.234;2022-07-30T03:41:20;19.67;;;10.15;;
40669;SDS011;26355;45.528;9.234;2022-07-30T03:43:46;21.92;;;10.77;;
40669;SDS011;26355;45.528;9.234;2022-07-30T03:46:13;19.02;;;10.00;;
40669;SDS011;26355;45.528;9.234;2022-07-30T03:48:41;18.55;;;9.90;;
40669;SDS011;26355;45.528;9.234;2022-07-30T03:51:08;18.35;;;8.68;;
40669;SDS011;26355;45.528;9.234;2022-07-30T03:53:34;19.30;;;9.20;;
40669;SDS011;26355;45.528;9.234;2022-07-30T03:56:01;17.75;;;7.82;;
40669;SDS011;26355;45.528;9.234;2022-07-30T03:58:27;18.98;;;7.57;;
40669;SDS011;26355;45.528;9.234;2022-07-30T04:00:53;18.27;;;8.07;;
40669;SDS011;26355;45.528;9.234;2022-07-30T04:03:25;16.10;;;6.72;;
40669;SDS011;26355;45.528;9.234;2022-07-30T04:05:52;15.25;;;6.75;;
40669;SDS011;26355;45.528;9.234;2022-07-30T04:08:18;15.38;;;6.45;;
40669;SDS011;26355;45.528;9.234;2022-07-30T04:10:44;15.73;;;6.57;;
40669;SDS011;26355;45.528;9.234;2022-07-30T04:13:10;15.15;;;6.40;;
40669;SDS011;26355;45.528;9.234;2022-07-30T04:15:44;16.90;;;6.47;;
40669;SDS011;26355;45.528;9.234;2022-07-30T04:18:15;15.73;;;6.28;;
40669;SDS011;26355;45.528;9.234;2022-07-30T04:23:10;14.93;;;6.80;;
40669;SDS011;26355;45.528;9.234;2022-07-30T04:25:36;18.07;;;7.20;;
40669;SDS011;26355;45.528;9.234;2022-07-30T04:28:04;14.95;;;6.13;;
40669;SDS011;26355;45.528;9.234;2022-07-30T04:30:30;15.30;;;6.30;;
40669;SDS011;26355;45.528;9.234;2022-07-30T04:33:00;14.60;;;5.97;;
40669;SDS011;26355;45.528;9.234;2022-07-30T04:35:27;14.80;;;6.20;;
40669;SDS011;26355;45.528;9.234;2022-07-30T04:40:19;14.70;;;5.75;;
40669;SDS011;26355;45.528;9.234;2022-07-30T04:42:45;16.00;;;5.72;;
40669;SDS011;26355;45.528;9.234;2022-07-30T04:45:11;15.63;;;6.10;;
40669;SDS011;26355;45.528;9.234;2022-07-30T04:47:36;13.13;;;5.50;;
40669;SDS011;26355;45.528;9.234;2022-07-30T04:50:03;13.48;;;4.75;;
40669;SDS011;26355;45.528;9.234;2022-07-30T04:52:33;14.85;;;5.13;;
40669;SDS011;26355;45.528;9.234;2022-07-30T04:55:03;15.77;;;5.72;;
40669;SDS011;26355;45.528;9.234;2022-07-30T04:57:31;14.15;;;5.30;;
40669;SDS011;26355;45.528;9.234;2022-07-30T05:00:00;13.20;;;4.88;;
40669;SDS011;26355;45.528;9.234;2022-07-30T05:02:27;12.13;;;4.68;;
40669;SDS011;26355;45.528;9.234;2022-07-30T05:04:54;12.65;;;4.75;;
40669;SDS011;26355;45.528;9.234;2022-07-30T05:07:21;15.13;;;5.40;;
40669;SDS011;26355;45.528;9.234;2022-07-30T05:09:48;12.00;;;4.50;;
40669;SDS011;26355;45.528;9.234;2022-07-30T05:12:14;13.20;;;4.73;;
40669;SDS011;26355;45.528;9.234;2022-07-30T05:14:40;14.35;;;5.53;;
40669;SDS011;26355;45.528;9.234;2022-07-30T05:17:06;14.50;;;5.20;;
40669;SDS011;26355;45.528;9.234;2022-07-30T05:19:31;15.70;;;6.25;;
40669;SDS011;26355;45.528;9.234;2022-07-30T05:21:57;17.13;;;7.20;;
40669;SDS011;26355;45.528;9.234;2022-07-30T05:24:23;16.00;;;6.38;;
40669;SDS011;26355;45.528;9.234;2022-07-30T05:26:49;19.95;;;9.35;;
40669;SDS011;26355;45.528;9.234;2022-07-30T05:29:14;18.00;;;8.68;;
40669;SDS011;26355;45.528;9.234;2022-07-30T05:31:40;16.25;;;7.55;;
40669;SDS011;26355;45.528;9.234;2022-07-30T05:34:06;17.75;;;8.02;;
40669;SDS011;26355;45.528;9.234;2022-07-30T05:36:32;15.05;;;6.30;;
40669;SDS011;26355;45.528;9.234;2022-07-30T05:38:58;13.75;;;5.38;;
40669;SDS011;26355;45.528;9.234;2022-07-30T05:41:24;15.30;;;5.67;;
40669;SDS011;26355;45.528;9.234;2022-07-30T05:46:17;13.50;;;5.75;;
40669;SDS011;26355;45.528;9.234;2022-07-30T05:48:43;13.20;;;5.40;;
40669;SDS011;26355;45.528;9.234;2022-07-30T05:51:08;13.93;;;5.32;;
40669;SDS011;26355;45.528;9.234;2022-07-30T05:53:34;13.95;;;4.90;;
40669;SDS011;26355;45.528;9.234;2022-07-30T05:55:59;14.13;;;4.95;;
40669;SDS011;26355;45.528;9.234;2022-07-30T05:58:25;14.45;;;5.18;;
40669;SDS011;26355;45.528;9.234;2022-07-30T06:00:51;13.88;;;5.50;;
40669;SDS011;26355;45.528;9.234;2022-07-30T06:03:16;14.60;;;5.47;;
40669;SDS011;26355;45.528;9.234;2022-07-30T06:05:42;14.02;;;5.22;;
40669;SDS011;26355;45.528;9.234;2022-07-30T06:08:08;13.63;;;5.32;;
40669;SDS011;26355;45.528;9.234;2022-07-30T06:10:34;13.55;;;5.13;;
40669;SDS011;26355;45.528;9.234;2022-07-30T06:12:59;17.60;;;6.00;;
40669;SDS011;26355;45.528;9.234;2022-07-30T06:15:25;12.43;;;4.72;;
40669;SDS011;26355;45.528;9.234;2022-07-30T06:17:51;13.98;;;5.18;;
40669;SDS011;26355;45.528;9.234;2022-07-30T06:20:17;14.10;;;4.85;;
40669;SDS011;26355;45.528;9.234;2022-07-30T06:22:44;13.68;;;4.88;;
40669;SDS011;26355;45.528;9.234;2022-07-30T06:25:10;14.32;;;5.07;;
40669;SDS011;26355;45.528;9.234;2022-07-30T06:27:36;12.68;;;4.95;;
40669;SDS011;26355;45.528;9.234;2022-07-30T06:30:03;13.95;;;5.50;;
40669;SDS011;26355;45.528;9.234;2022-07-30T06:32:30;13.10;;;4.78;;
40669;SDS011;26355;45.528;9.234;2022-07-30T06:34:56;11.15;;;4.15;;
40669;SDS011;26355;45.528;9.234;2022-07-30T06:37:22;12.43;;;3.90;;
40669;SDS011;26355;45.528;9.234;2022-07-30T06:39:48;10.65;;;4.07;;
40669;SDS011;26355;45.528;9.234;2022-07-30T06:42:14;10.90;;;3.60;;
40669;SDS011;26355;45.528;9.234;2022-07-30T06:44:40;8.75;;;3.17;;
40669;SDS011;26355;45.528;9.234;2022-07-30T06:47:05;11.15;;;3.80;;
40669;SDS011;26355;45.528;9.234;2022-07-30T06:49:31;10.32;;;3.95;;
40669;SDS011;26355;45.528;9.234;2022-07-30T06:51:58;9.30;;;3.22;;
40669;SDS011;26355;45.528;9.234;2022-07-30T06:54:23;9.90;;;3.40;;
40669;SDS011;26355;45.528;9.234;2022-07-30T06:56:49;8.50;;;3.20;;
40669;SDS011;26355;45.528;9.234;2022-07-30T06:59:15;11.88;;;3.38;;
40669;SDS011;26355;45.528;9.234;2022-07-30T07:01:41;11.63;;;3.92;;
40669;SDS011;26355;45.528;9.234;2022-07-30T07:04:06;13.90;;;3.10;;
40669;SDS011;26355;45.528;9.234;2022-07-30T07:06:32;10.05;;;3.35;;
40669;SDS011;26355;45.528;9.234;2022-07-30T07:08:58;9.93;;;3.40;;
40669;SDS011;26355;45.528;9.234;2022-07-30T07:11:24;9.60;;;3.35;;
40669;SDS011;26355;45.528;9.234;2022-07-30T07:13:49;8.88;;;3.28;;
40669;SDS011;26355;45.528;9.234;2022-07-30T07:16:15;10.23;;;3.15;;
40669;SDS011;26355;45.528;9.234;2022-07-30T07:18:45;11.18;;;4.18;;
40669;SDS011;26355;45.528;9.234;2022-07-30T07:21:11;12.48;;;3.22;;
40669;SDS011;26355;45.528;9.234;2022-07-30T07:23:37;9.70;;;3.10;;
40669;SDS011;26355;45.528;9.234;2022-07-30T07:26:02;10.25;;;3.28;;
40669;SDS011;26355;45.528;9.234;2022-07-30T07:28:28;10.95;;;3.72;;
40669;SDS011;26355;45.528;9.234;2022-07-30T07:30:54;14.10;;;3.58;;
40669;SDS011;26355;45.528;9.234;2022-07-30T07:33:19;10.60;;;3.50;;
40669;SDS011;26355;45.528;9.234;2022-07-30T07:35:45;9.68;;;3.30;;
40669;SDS011;26355;45.528;9.234;2022-07-30T07:38:11;9.18;;;3.50;;
40669;SDS011;26355;45.528;9.234;2022-07-30T07:40:37;10.88;;;3.60;;
40669;SDS011;26355;45.528;9.234;2022-07-30T07:43:02;9.70;;;3.60;;
40669;SDS011;26355;45.528;9.234;2022-07-30T07:45:29;11.32;;;3.65;;
40669;SDS011;26355;45.528;9.234;2022-07-30T07:47:55;9.98;;;3.25;;
40669;SDS011;26355;45.528;9.234;2022-07-30T07:50:20;12.52;;;3.50;;
40669;SDS011;26355;45.528;9.234;2022-07-30T07:52:47;10.88;;;3.53;;
40669;SDS011;26355;45.528;9.234;2022-07-30T07:55:13;10.63;;;3.53;;
40669;SDS011;26355;45.528;9.234;2022-07-30T07:57:42;12.82;;;3.95;;
40669;SDS011;26355;45.528;9.234;2022-07-30T08:00:10;9.20;;;3.00;;
40669;SDS011;26355;45.528;9.234;2022-07-30T08:02:38;10.52;;;2.88;;
40669;SDS011;26355;45.528;9.234;2022-07-30T08:05:05;9.65;;;3.35;;
40669;SDS011;26355;45.528;9.234;2022-07-30T08:07:31;10.95;;;3.80;;
40669;SDS011;26355;45.528;9.234;2022-07-30T08:09:57;9.73;;;3.17;;
40669;SDS011;26355;45.528;9.234;2022-07-30T08:12:23;13.63;;;4.22;;
40669;SDS011;26355;45.528;9.234;2022-07-30T08:14:49;13.07;;;4.63;;
40669;SDS011;26355;45.528;9.234;2022-07-30T08:17:14;12.23;;;4.20;;
40669;SDS011;26355;45.528;9.234;2022-07-30T08:19:40;16.15;;;6.13;;
40669;SDS011;26355;45.528;9.234;2022-07-30T08:22:06;18.23;;;6.03;;
40669;SDS011;26355;45.528;9.234;2022-07-30T08:24:31;15.15;;;5.10;;
40669;SDS011;26355;45.528;9.234;2022-07-30T08:26:57;15.23;;;5.97;;
40669;SDS011;26355;45.528;9.234;2022-07-30T08:29:23;14.45;;;5.43;;
40669;SDS011;26355;45.528;9.234;2022-07-30T08:31:48;15.75;;;5.95;;
40669;SDS011;26355;45.528;9.234;2022-07-30T08:34:14;16.60;;;6.15;;
40669;SDS011;26355;45.528;9.234;2022-07-30T08:36:40;14.55;;;5.20;;
40669;SDS011;26355;45.528;9.234;2022-07-30T08:39:06;15.05;;;5.40;;
40669;SDS011;26355;45.528;9.234;2022-07-30T08:41:31;17.08;;;5.88;;
40669;SDS011;26355;45.528;9.234;2022-07-30T08:43:58;15.60;;;5.35;;
40669;SDS011;26355;45.528;9.234;2022-07-30T08:46:26;15.90;;;6.05;;
40669;SDS011;26355;45.528;9.234;2022-07-30T08:48:55;14.75;;;5.63;;
40669;SDS011;26355;45.528;9.234;2022-07-30T08:51:21;13.65;;;5.32;;
40669;SDS011;26355;45.528;9.234;2022-07-30T08:53:47;13.13;;;5.03;;
40669;SDS011;26355;45.528;9.234;2022-07-30T08:56:13;11.88;;;4.43;;
40669;SDS011;26355;45.528;9.234;2022-07-30T08:58:40;12.90;;;4.83;;
40669;SDS011;26355;45.528;9.234;2022-07-30T09:01:06;11.57;;;4.00;;
40669;SDS011;26355;45.528;9.234;2022-07-30T09:03:32;12.43;;;3.60;;
40669;SDS011;26355;45.528;9.234;2022-07-30T09:06:01;10.93;;;3.80;;
40669;SDS011;26355;45.528;9.234;2022-07-30T09:08:28;11.88;;;4.05;;
40669;SDS011;26355;45.528;9.234;2022-07-30T09:10:54;12.93;;;4.63;;
40669;SDS011;26355;45.528;9.234;2022-07-30T09:13:24;9.98;;;3.08;;
40669;SDS011;26355;45.528;9.234;2022-07-30T09:16:00;9.00;;;3.20;;
40669;SDS011;26355;45.528;9.234;2022-07-30T09:18:31;10.27;;;3.45;;
40669;SDS011;26355;45.528;9.234;2022-07-30T09:20:58;10.85;;;3.55;;
40669;SDS011;26355;45.528;9.234;2022-07-30T09:26:28;8.10;;;2.78;;
40669;SDS011;26355;45.528;9.234;2022-07-30T09:28:55;12.27;;;2.92;;
40669;SDS011;26355;45.528;9.234;2022-07-30T09:31:51;12.30;;;3.15;;
40669;SDS011;26355;45.528;9.234;2022-07-30T09:34:53;11.40;;;3.45;;
40669;SDS011;26355;45.528;9.234;2022-07-30T09:39:38;10.88;;;3.10;;
40669;SDS011;26355;45.528;9.234;2022-07-30T09:42:21;9.00;;;2.90;;
40669;SDS011;26355;45.528;9.234;2022-07-30T09:44:49;10.23;;;3.03;;
40669;SDS011;26355;45.528;9.234;2022-07-30T09:50:17;8.98;;;2.78;;
40669;SDS011;26355;45.528;9.234;2022-07-30T09:52:48;8.43;;;2.55;;
40669;SDS011;26355;45.528;9.234;2022-07-30T09:55:27;10.98;;;3.45;;
40669;SDS011;26355;45.528;9.234;2022-07-30T09:57:55;9.00;;;2.55;;
40669;SDS011;26355;45.528;9.234;2022-07-30T10:00:26;6.50;;;2.50;;
40669;SDS011;26355;45.528;9.234;2022-07-30T10:02:52;9.93;;;2.55;;
40669;SDS011;26355;45.528;9.234;2022-07-30T10:05:19;7.18;;;2.33;;
40669;SDS011;26355;45.528;9.234;2022-07-30T10:07:52;8.90;;;2.38;;
40669;SDS011;26355;45.528;9.234;2022-07-30T10:10:29;10.75;;;2.50;;
40669;SDS011;26355;45.528;9.234;2022-07-30T10:12:56;8.65;;;3.03;;
40669;SDS011;26355;45.528;9.234;2022-07-30T10:15:29;4.97;;;2.42;;
40669;SDS011;26355;45.528;9.234;2022-07-30T10:17:57;11.05;;;2.80;;
40669;SDS011;26355;45.528;9.234;2022-07-30T10:20:23;9.77;;;3.30;;
40669;SDS011;26355;45.528;9.234;2022-07-30T10:22:50;10.90;;;2.72;;
40669;SDS011;26355;45.528;9.234;2022-07-30T10:25:17;8.60;;;2.97;;
40669;SDS011;26355;45.528;9.234;2022-07-30T10:27:48;10.13;;;3.47;;
40669;SDS011;26355;45.528;9.234;2022-07-30T10:30:15;9.73;;;2.40;;
40669;SDS011;26355;45.528;9.234;2022-07-30T10:32:42;11.38;;;2.15;;
40669;SDS011;26355;45.528;9.234;2022-07-30T10:35:09;7.43;;;2.85;;
40669;SDS011;26355;45.528;9.234;2022-07-30T10:37:36;8.68;;;2.75;;
40669;SDS011;26355;45.528;9.234;2022-07-30T10:48:15;5.30;;;2.13;;
40669;SDS011;26355;45.528;9.234;2022-07-30T10:50:56;8.93;;;2.90;;
40669;SDS011;26355;45.528;9.234;2022-07-30T10:56:17;8.25;;;2.45;;
40669;SDS011;26355;45.528;9.234;2022-07-30T10:58:57;5.32;;;2.30;;
40669;SDS011;26355;45.528;9.234;2022-07-30T11:01:24;6.95;;;2.50;;
40669;SDS011;26355;45.528;9.234;2022-07-30T11:06:49;8.23;;;2.40;;
40669;SDS011;26355;45.528;9.234;2022-07-30T11:09:36;10.60;;;2.58;;
40669;SDS011;26355;45.528;9.234;2022-07-30T11:12:03;9.95;;;2.63;;
40669;SDS011;26355;45.528;9.234;2022-07-30T11:15:14;8.45;;;2.92;;
40669;SDS011;26355;45.528;9.234;2022-07-30T11:17:15;9.10;;;2.50;;
40669;SDS011;26355;45.528;9.234;2022-07-30T11:25:05;7.82;;;2.83;;
40669;SDS011;26355;45.528;9.234;2022-07-30T11:27:54;9.88;;;3.10;;
40669;SDS011;26355;45.528;9.234;2022-07-30T11:32:49;11.48;;;3.72;;
40669;SDS011;26355;45.528;9.234;2022-07-30T11:35:20;8.45;;;3.50;;
40669;SDS011;26355;45.528;9.234;2022-07-30T11:43:19;11.48;;;3.30;;
40669;SDS011;26355;45.528;9.234;2022-07-30T11:46:03;14.05;;;3.25;;
40669;SDS011;26355;45.528;9.234;2022-07-30T11:48:33;8.10;;;2.92;;
40669;SDS011;26355;45.528;9.234;2022-07-30T11:51:02;8.25;;;3.05;;
40669;SDS011;26355;45.528;9.234;2022-07-30T11:53:28;9.52;;;3.60;;
40669;SDS011;26355;45.528;9.234;2022-07-30T11:55:55;13.13;;;4.35;;
40669;SDS011;26355;45.528;9.234;2022-07-30T12:00:53;16.30;;;6.13;;
40669;SDS011;26355;45.528;9.234;2022-07-30T12:03:22;14.63;;;4.13;;
40669;SDS011;26355;45.528;9.234;2022-07-30T12:05:48;10.52;;;3.10;;
40669;SDS011;26355;45.528;9.234;2022-07-30T12:08:14;14.35;;;4.80;;
40669;SDS011;26355;45.528;9.234;2022-07-30T12:10:42;24.33;;;7.95;;
40669;SDS011;26355;45.528;9.234;2022-07-30T12:13:18;16.00;;;4.75;;
40669;SDS011;26355;45.528;9.234;2022-07-30T12:15:45;11.80;;;3.90;;
40669;SDS011;26355;45.528;9.234;2022-07-30T12:18:11;14.70;;;4.68;;
40669;SDS011;26355;45.528;9.234;2022-07-30T12:20:41;15.32;;;4.93;;
40669;SDS011;26355;45.528;9.234;2022-07-30T12:23:12;10.95;;;4.18;;
40669;SDS011;26355;45.528;9.234;2022-07-30T12:25:39;13.85;;;4.55;;
40669;SDS011;26355;45.528;9.234;2022-07-30T12:28:05;15.10;;;4.93;;
40669;SDS011;26355;45.528;9.234;2022-07-30T12:32:58;9.57;;;3.50;;
40669;SDS011;26355;45.528;9.234;2022-07-30T12:35:40;9.50;;;3.22;;
40669;SDS011;26355;45.528;9.234;2022-07-30T12:38:06;9.68;;;3.65;;
40669;SDS011;26355;45.528;9.234;2022-07-30T12:40:32;17.60;;;5.72;;
40669;SDS011;26355;45.528;9.234;2022-07-30T12:42:58;9.98;;;3.97;;
40669;SDS011;26355;45.528;9.234;2022-07-30T12:45:30;12.00;;;4.55;;
40669;SDS011;26355;45.528;9.234;2022-07-30T12:47:59;12.23;;;3.60;;
40669;SDS011;26355;45.528;9.234;2022-07-30T12:50:25;9.93;;;3.45;;
40669;SDS011;26355;45.528;9.234;2022-07-30T12:52:52;8.70;;;3.40;;
40669;SDS011;26355;45.528;9.234;2022-07-30T12:55:32;9.13;;;3.47;;
40669;SDS011;26355;45.528;9.234;2022-07-30T13:00:47;10.10;;;3.30;;
40669;SDS011;26355;45.528;9.234;2022-07-30T13:03:26;11.07;;;3.75;;
40669;SDS011;26355;45.528;9.234;2022-07-30T13:08:19;12.88;;;3.92;;
40669;SDS011;26355;45.528;9.234;2022-07-30T13:10:56;9.63;;;3.60;;
40669;SDS011;26355;45.528;9.234;2022-07-30T13:13:24;14.10;;;3.70;;
40669;SDS011;26355;45.528;9.234;2022-07-30T13:16:00;9.30;;;3.80;;
40669;SDS011;26355;45.528;9.234;2022-07-30T13:18:28;9.98;;;3.33;;
40669;SDS011;26355;45.528;9.234;2022-07-30T13:20:55;9.60;;;3.53;;
40669;SDS011;26355;45.528;9.234;2022-07-30T13:23:22;8.70;;;3.15;;
40669;SDS011;26355;45.528;9.234;2022-07-30T13:25:49;6.90;;;2.53;;
40669;SDS011;26355;45.528;9.234;2022-07-30T13:28:15;13.27;;;4.97;;
40669;SDS011;26355;45.528;9.234;2022-07-30T13:30:41;8.52;;;2.95;;
40669;SDS011;26355;45.528;9.234;2022-07-30T13:33:07;14.60;;;3.78;;
40669;SDS011;26355;45.528;9.234;2022-07-30T13:35:33;6.10;;;2.38;;
40669;SDS011;26355;45.528;9.234;2022-07-30T13:37:59;8.05;;;2.85;;
40669;SDS011;26355;45.528;9.234;2022-07-30T13:40:26;9.23;;;2.55;;
40669;SDS011;26355;45.528;9.234;2022-07-30T13:42:52;8.52;;;2.55;;
40669;SDS011;26355;45.528;9.234;2022-07-30T13:45:17;7.53;;;2.67;;
40669;SDS011;26355;45.528;9.234;2022-07-30T13:47:43;9.80;;;2.63;;
40669;SDS011;26355;45.528;9.234;2022-07-30T13:50:09;8.25;;;2.55;;
40669;SDS011;26355;45.528;9.234;2022-07-30T13:52:34;8.50;;;2.45;;
40669;SDS011;26355;45.528;9.234;2022-07-30T13:55:00;8.73;;;2.83;;
40669;SDS011;26355;45.528;9.234;2022-07-30T13:57:25;7.07;;;2.60;;
40669;SDS011;26355;45.528;9.234;2022-07-30T13:59:51;9.80;;;3.35;;
40669;SDS011;26355;45.528;9.234;2022-07-30T14:02:18;7.32;;;2.40;;
40669;SDS011;26355;45.528;9.234;2022-07-30T14:04:43;7.72;;;2.60;;
40669;SDS011;26355;45.528;9.234;2022-07-30T14:07:10;6.63;;;2.40;;
40669;SDS011;26355;45.528;9.234;2022-07-30T14:09:36;7.35;;;2.42;;
40669;SDS011;26355;45.528;9.234;2022-07-30T14:12:01;8.13;;;2.60;;
40669;SDS011;26355;45.528;9.234;2022-07-30T14:14:27;5.83;;;2.40;;
40669;SDS011;26355;45.528;9.234;2022-07-30T14:16:52;9.63;;;3.17;;
40669;SDS011;26355;45.528;9.234;2022-07-30T14:19:18;8.97;;;3.03;;
40669;SDS011;26355;45.528;9.234;2022-07-30T14:21:44;5.80;;;2.07;;
40669;SDS011;26355;45.528;9.234;2022-07-30T14:24:10;7.55;;;2.00;;
40669;SDS011;26355;45.528;9.234;2022-07-30T14:26:37;7.40;;;2.63;;
40669;SDS011;26355;45.528;9.234;2022-07-30T14:29:06;8.40;;;2.60;;
40669;SDS011;26355;45.528;9.234;2022-07-30T14:31:32;10.00;;;2.72;;
40669;SDS011;26355;45.528;9.234;2022-07-30T14:33:58;7.97;;;2.55;;
40669;SDS011;26355;45.528;9.234;2022-07-30T14:36:24;5.53;;;2.17;;
40669;SDS011;26355;45.528;9.234;2022-07-30T14:38:53;7.38;;;2.30;;
40669;SDS011;26355;45.528;9.234;2022-07-30T14:41:23;7.78;;;2.63;;
40669;SDS011;26355;45.528;9.234;2022-07-30T14:43:49;6.95;;;2.45;;
40669;SDS011;26355;45.528;9.234;2022-07-30T14:46:15;7.57;;;2.30;;
40669;SDS011;26355;45.528;9.234;2022-07-30T14:48:41;6.37;;;2.10;;
40669;SDS011;26355;45.528;9.234;2022-07-30T14:51:07;9.25;;;2.60;;
40669;SDS011;26355;45.528;9.234;2022-07-30T14:53:32;5.93;;;2.43;;
40669;SDS011;26355;45.528;9.234;2022-07-30T14:55:58;7.50;;;2.70;;
40669;SDS011;26355;45.528;9.234;2022-07-30T14:58:24;8.00;;;2.83;;
40669;SDS011;26355;45.528;9.234;2022-07-30T15:00:49;7.45;;;2.30;;
40669;SDS011;26355;45.528;9.234;2022-07-30T15:03:16;7.30;;;2.20;;
40669;SDS011;26355;45.528;9.234;2022-07-30T15:05:42;5.67;;;2.13;;
40669;SDS011;26355;45.528;9.234;2022-07-30T15:08:07;4.40;;;2.33;;
40669;SDS011;26355;45.528;9.234;2022-07-30T15:10:33;9.17;;;2.50;;
40669;SDS011;26355;45.528;9.234;2022-07-30T15:12:59;5.60;;;2.20;;
40669;SDS011;26355;45.528;9.234;2022-07-30T15:15:24;8.50;;;2.30;;
40669;SDS011;26355;45.528;9.234;2022-07-30T15:17:50;7.25;;;2.53;;
40669;SDS011;26355;45.528;9.234;2022-07-30T15:20:16;7.73;;;2.10;;
40669;SDS011;26355;45.528;9.234;2022-07-30T15:22:41;6.65;;;2.30;;
40669;SDS011;26355;45.528;9.234;2022-07-30T15:25:07;5.63;;;2.03;;
40669;SDS011;26355;45.528;9.234;2022-07-30T15:27:33;4.47;;;1.80;;
40669;SDS011;26355;45.528;9.234;2022-07-30T15:29:58;7.37;;;2.20;;
40669;SDS011;26355;45.528;9.234;2022-07-30T15:32:24;6.07;;;2.00;;
40669;SDS011;26355;45.528;9.234;2022-07-30T15:34:50;5.75;;;2.08;;
40669;SDS011;26355;45.528;9.234;2022-07-30T15:37:16;5.72;;;2.05;;